createdAt,value
2019-02-06T00:00:54.058Z,23.50
2019-02-06T00:03:27.605Z,24.77
2019-02-06T00:06:01.758Z,23.27
2019-02-06T00:08:53.632Z,22.90
2019-02-06T00:11:27.565Z,22.30
2019-02-06T00:14:01.336Z,23.33
2019-02-06T00:16:34.898Z,24.33
2019-02-06T00:19:08.740Z,26.37
2019-02-06T00:22:00.037Z,26.67
2019-02-06T00:24:33.301Z,27.00
2019-02-06T00:27:06.511Z,26.23
2019-02-06T00:29:40.469Z,28.73
2019-02-06T00:32:14.221Z,29.30
2019-02-06T00:34:48.031Z,27.53
2019-02-06T00:37:21.747Z,28.57
2019-02-06T00:39:55.232Z,30.53
2019-02-06T00:42:28.162Z,30.17
2019-02-06T00:45:01.921Z,30.37
2019-02-06T00:47:35.440Z,31.57
2019-02-06T00:50:10.892Z,31.70
2019-02-06T00:52:44.636Z,32.90
2019-02-06T00:55:17.237Z,32.83
2019-02-06T00:58:03.347Z,33.40
2019-02-06T01:00:53.307Z,32.80
2019-02-06T01:03:26.751Z,31.80
2019-02-06T01:06:00.613Z,32.30
2019-02-06T01:08:45.381Z,32.87
2019-02-06T01:11:19.133Z,31.20
2019-02-06T01:13:53.262Z,32.23
2019-02-06T01:16:26.927Z,33.70
2019-02-06T01:19:00.125Z,34.10
2019-02-06T01:21:46.123Z,34.23
2019-02-06T01:24:31.581Z,34.30
2019-02-06T01:27:04.771Z,34.70
2019-02-06T01:29:49.881Z,34.73
2019-02-06T01:32:41.085Z,36.37
2019-02-06T01:35:14.779Z,35.40
2019-02-06T01:38:00.477Z,37.50
2019-02-06T01:40:45.951Z,36.53
2019-02-06T01:43:31.622Z,33.93
2019-02-06T01:46:04.758Z,36.80
2019-02-06T01:48:38.917Z,36.20
2019-02-06T01:51:12.859Z,36.63
2019-02-06T01:53:47.085Z,37.00
2019-02-06T01:56:20.875Z,38.07
2019-02-06T01:58:53.023Z,36.60
2019-02-06T02:01:27.464Z,36.83
2019-02-06T02:04:21.780Z,37.43
2019-02-06T02:07:07.805Z,37.47
2019-02-06T02:09:41.731Z,36.37
2019-02-06T02:12:16.527Z,36.30
2019-02-06T02:14:50.317Z,36.57
2019-02-06T02:17:24.643Z,35.87
2019-02-06T02:19:57.520Z,36.13
2019-02-06T02:22:31.624Z,37.10
2019-02-06T02:25:06.218Z,37.77
2019-02-06T02:27:40.091Z,36.97
2019-02-06T02:30:16.449Z,37.00
2019-02-06T02:32:50.874Z,37.77
2019-02-06T02:35:24.632Z,37.07
2019-02-06T02:37:58.173Z,38.10
2019-02-06T02:40:31.673Z,37.30
2019-02-06T02:43:05.418Z,36.97
2019-02-06T02:45:39.161Z,37.20
2019-02-06T02:48:23.949Z,39.03
2019-02-06T02:51:16.600Z,37.10
2019-02-06T02:54:07.243Z,37.97
2019-02-06T02:56:41.326Z,35.67
2019-02-06T02:59:16.216Z,36.77
2019-02-06T03:02:25.694Z,36.57
2019-02-06T03:05:03.918Z,35.80
2019-02-06T03:07:37.573Z,35.67
2019-02-06T03:10:11.699Z,38.20
2019-02-06T03:12:45.559Z,35.87
2019-02-06T03:15:30.901Z,36.57
2019-02-06T03:18:16.691Z,36.37
2019-02-06T03:20:50.829Z,38.83
2019-02-06T03:23:28.792Z,36.53
2019-02-06T03:26:02.270Z,36.90
2019-02-06T03:28:35.994Z,36.53
2019-02-06T03:31:10.723Z,34.93
2019-02-06T03:34:04.990Z,36.13
2019-02-06T03:36:40.890Z,35.23
2019-02-06T03:39:13.908Z,35.30
2019-02-06T03:42:04.790Z,36.00
2019-02-06T03:44:49.642Z,34.97
2019-02-06T03:47:41.916Z,35.17
2019-02-06T03:50:16.485Z,33.93
2019-02-06T03:52:51.084Z,34.50
2019-02-06T03:55:24.835Z,35.63
2019-02-06T03:57:58.609Z,34.53
2019-02-06T04:00:32.662Z,33.77
2019-02-06T04:03:04.789Z,34.57
2019-02-06T04:05:55.485Z,34.03
2019-02-06T04:08:40.788Z,35.37
2019-02-06T04:11:34.667Z,35.40
2019-02-06T04:14:09.540Z,33.47
2019-02-06T04:16:43.806Z,35.23
2019-02-06T04:19:17.612Z,33.73
2019-02-06T04:21:51.358Z,34.57
2019-02-06T04:24:24.603Z,32.20
2019-02-06T04:26:57.787Z,34.87
2019-02-06T04:29:49.135Z,32.50
2019-02-06T04:32:33.801Z,33.53
2019-02-06T04:35:19.059Z,32.37
2019-02-06T04:37:51.578Z,32.77
2019-02-06T04:40:26.020Z,33.17
2019-02-06T04:43:00.150Z,30.80
2019-02-06T04:45:51.982Z,33.43
2019-02-06T04:48:25.889Z,33.80
2019-02-06T04:50:59.840Z,34.03
2019-02-06T04:53:34.074Z,31.60
2019-02-06T04:56:23.017Z,32.20
2019-02-06T04:58:57.659Z,31.37
2019-02-06T05:01:43.443Z,31.47
2019-02-06T05:04:28.428Z,31.47
2019-02-06T05:07:19.197Z,30.20
2019-02-06T05:09:48.766Z,32.07
2019-02-06T05:12:35.093Z,28.77
2019-02-06T05:15:09.794Z,30.10
2019-02-06T05:17:56.089Z,29.70
2019-02-06T05:20:47.412Z,28.73
2019-02-06T05:23:32.761Z,28.90
2019-02-06T05:26:24.136Z,27.00
2019-02-06T05:28:58.690Z,27.87
2019-02-06T05:31:32.788Z,26.93
2019-02-06T05:34:08.137Z,27.33
2019-02-06T05:37:02.823Z,26.17
2019-02-06T05:39:36.381Z,25.70
2019-02-06T05:42:21.881Z,25.83
2019-02-06T05:45:14.598Z,24.63
2019-02-06T05:47:48.844Z,24.57
2019-02-06T05:50:33.880Z,25.77
2019-02-06T05:53:08.668Z,25.73
2019-02-06T05:55:42.447Z,24.87
2019-02-06T05:58:16.989Z,24.57
2019-02-06T06:01:02.106Z,23.27
2019-02-06T06:03:35.191Z,23.10
2019-02-06T06:06:07.786Z,22.97
2019-02-06T06:08:42.903Z,23.93
2019-02-06T06:11:15.803Z,24.37
2019-02-06T06:13:49.151Z,23.43
2019-02-06T06:16:44.299Z,23.10
2019-02-06T06:19:16.640Z,25.30
2019-02-06T06:21:49.112Z,22.83
2019-02-06T06:53:56.735Z,21.20
2019-02-06T06:56:30.188Z,20.37
2019-02-06T06:59:06.310Z,20.47
2019-02-06T07:12:16.879Z,20.20
2019-02-06T07:14:52.331Z,19.13
2019-02-06T07:17:26.426Z,20.43
2019-02-06T07:20:00.547Z,20.13
2019-02-06T07:22:45.127Z,20.23
2019-02-06T07:25:19.356Z,19.97
2019-02-06T07:27:54.939Z,20.70
2019-02-06T07:30:33.479Z,21.00
2019-02-06T07:33:07.384Z,20.37
2019-02-06T07:35:42.940Z,18.77
2019-02-06T07:38:23.988Z,19.57
2019-02-06T07:41:02.488Z,20.70
2019-02-06T07:43:37.893Z,21.27
2019-02-06T07:46:31.279Z,20.60
2019-02-06T07:49:03.552Z,21.30
2019-02-06T07:51:50.529Z,21.03
2019-02-06T07:54:24.746Z,20.13
2019-02-06T07:56:58.809Z,20.87
2019-02-06T07:59:32.693Z,20.17
2019-02-06T08:02:27.326Z,19.87
2019-02-06T08:05:18.755Z,19.30
2019-02-06T08:07:52.357Z,20.23
2019-02-06T08:10:28.593Z,17.70
2019-02-06T08:13:04.295Z,20.27
2019-02-06T08:15:38.150Z,18.57
2019-02-06T08:18:11.170Z,18.03
2019-02-06T08:20:45.188Z,19.10
2019-02-06T08:23:20.085Z,18.60
2019-02-06T08:25:53.715Z,17.60
2019-02-06T08:28:29.202Z,18.23
2019-02-06T08:31:03.381Z,17.47
2019-02-06T08:33:37.568Z,17.87
2019-02-06T08:36:12.230Z,17.63
2019-02-06T08:39:04.430Z,16.93
2019-02-06T08:41:37.693Z,16.37
2019-02-06T08:44:11.573Z,17.13
2019-02-06T08:46:45.224Z,16.33
2019-02-06T08:49:18.885Z,16.30
2019-02-06T08:51:52.998Z,16.43
2019-02-06T08:54:44.240Z,15.83
2019-02-06T08:57:18.421Z,15.37
2019-02-06T08:59:52.865Z,16.27
2019-02-06T09:02:28.525Z,15.83
2019-02-06T09:05:20.111Z,15.27
2019-02-06T09:07:54.534Z,15.73
2019-02-06T09:10:27.701Z,15.87
2019-02-06T09:13:18.588Z,15.00
2019-02-06T09:15:53.506Z,15.10
2019-02-06T09:18:39.081Z,15.07
2019-02-06T09:21:30.868Z,15.17
2019-02-06T09:24:08.599Z,15.83
2019-02-06T09:26:42.325Z,15.03
2019-02-06T09:29:16.757Z,15.87
2019-02-06T09:31:50.224Z,14.83
2019-02-06T09:34:23.675Z,14.60
2019-02-06T09:37:16.478Z,14.53
2019-02-06T09:39:52.090Z,15.33
2019-02-06T09:42:26.199Z,15.47
2019-02-06T09:44:59.929Z,14.47
2019-02-06T09:47:33.652Z,14.70
2019-02-06T09:50:12.807Z,14.37
2019-02-06T09:52:47.392Z,16.83
2019-02-06T09:55:20.885Z,18.87
2019-02-06T09:57:54.500Z,14.57
2019-02-06T10:00:46.646Z,18.62
2019-02-06T10:03:20.679Z,15.00
2019-02-06T10:05:53.834Z,14.70
2019-02-06T10:08:28.515Z,15.67
2019-02-06T10:11:02.759Z,14.77
2019-02-06T10:13:36.849Z,15.20
2019-02-06T10:16:30.074Z,14.93
2019-02-06T10:19:21.374Z,14.47
2019-02-06T10:22:09.598Z,14.57
2019-02-06T10:25:00.747Z,14.07
2019-02-06T10:27:34.753Z,14.33
2019-02-06T10:30:13.294Z,14.93
2019-02-06T10:32:47.065Z,14.30
2019-02-06T10:35:22.001Z,16.93
2019-02-06T10:37:57.286Z,14.13
2019-02-06T10:40:31.353Z,15.03
2019-02-06T10:43:03.294Z,14.03
2019-02-06T10:45:36.864Z,13.27
2019-02-06T10:48:12.045Z,14.50
2019-02-06T10:50:49.392Z,12.93
2019-02-06T10:53:36.011Z,13.30
2019-02-06T10:56:20.623Z,12.87
2019-02-06T10:58:54.394Z,12.90
2019-02-06T11:01:40.095Z,12.77
2019-02-06T11:04:37.854Z,12.03
2019-02-06T11:07:11.861Z,12.23
2019-02-06T11:09:47.692Z,12.80
2019-02-06T11:12:39.400Z,11.93
2019-02-06T11:15:31.387Z,11.40
2019-02-06T11:18:22.777Z,12.00
2019-02-06T11:21:00.827Z,11.40
2019-02-06T11:23:46.013Z,10.67
2019-02-06T11:26:21.121Z,12.03
2019-02-06T11:29:11.895Z,11.57
2019-02-06T11:31:46.011Z,11.37
2019-02-06T11:34:19.996Z,10.73
2019-02-06T11:36:54.508Z,10.87
2019-02-06T11:39:28.589Z,10.50
2019-02-06T11:42:02.661Z,9.07
2019-02-06T11:44:36.977Z,10.20
2019-02-06T11:47:10.853Z,10.50
2019-02-06T11:50:01.670Z,9.40
2019-02-06T11:52:52.468Z,9.97
2019-02-06T11:55:28.958Z,9.77
2019-02-06T11:58:01.527Z,10.00
2019-02-06T12:00:48.507Z,10.47
2019-02-06T12:03:23.214Z,10.10
2019-02-06T12:05:55.444Z,10.93
2019-02-06T12:08:31.275Z,11.17
2019-02-06T12:11:23.544Z,10.50
2019-02-06T12:13:57.500Z,11.33
2019-02-06T12:16:31.756Z,12.00
2019-02-06T12:19:23.068Z,11.27
2019-02-06T12:22:14.928Z,11.27
2019-02-06T12:25:02.830Z,11.90
2019-02-06T12:27:36.455Z,12.93
2019-02-06T12:30:18.143Z,11.47
2019-02-06T12:32:52.672Z,10.97
2019-02-06T12:35:26.634Z,10.80
2019-02-06T12:38:01.338Z,11.17
2019-02-06T12:40:46.482Z,10.77
2019-02-06T12:43:20.134Z,11.87
2019-02-06T12:45:54.363Z,10.63
2019-02-06T12:48:40.890Z,10.77
2019-02-06T12:51:14.894Z,11.97
2019-02-06T12:53:48.410Z,11.30
2019-02-06T12:56:21.686Z,11.33
2019-02-06T12:59:00.003Z,11.47
2019-02-06T13:01:40.460Z,11.93
2019-02-06T13:04:18.718Z,11.90
2019-02-06T13:06:53.274Z,11.77
2019-02-06T13:09:26.671Z,11.27
2019-02-06T13:12:27.202Z,11.20
2019-02-06T13:14:58.879Z,11.03
2019-02-06T13:17:38.046Z,11.90
2019-02-06T13:20:21.132Z,12.67
2019-02-06T13:24:12.046Z,12.10
2019-02-06T13:26:50.633Z,11.10
2019-02-06T13:29:26.494Z,11.77
2019-02-06T13:43:22.423Z,10.80
2019-02-06T13:45:56.779Z,9.90
2019-02-06T13:48:33.572Z,10.83
2019-02-06T13:51:16.310Z,11.23
2019-02-06T13:53:42.626Z,10.43
2019-02-06T13:56:16.594Z,11.03
2019-02-06T13:58:50.697Z,10.50
2019-02-06T14:01:33.708Z,11.53
2019-02-06T14:04:26.818Z,10.30
2019-02-06T14:07:01.211Z,11.23
2019-02-06T14:09:35.413Z,11.20
2019-02-06T14:12:08.151Z,10.77
2019-02-06T14:14:53.728Z,11.60
2019-02-06T14:17:28.104Z,11.23
2019-02-06T14:20:01.241Z,11.53
2019-02-06T14:22:33.744Z,12.43
2019-02-06T14:25:28.664Z,12.60
2019-02-06T14:28:45.129Z,12.00
2019-02-06T14:31:50.402Z,12.13
2019-02-06T14:35:03.626Z,13.00
2019-02-06T14:38:10.617Z,14.30
2019-02-06T14:41:20.516Z,14.63
2019-02-06T14:44:17.758Z,15.00
2019-02-06T14:47:30.079Z,15.70
2019-02-06T14:50:33.552Z,13.87
2019-02-06T14:53:36.700Z,13.80
2019-02-06T14:56:54.024Z,15.03
2019-02-06T15:00:18.701Z,14.13
2019-02-06T15:03:26.537Z,15.33
2019-02-06T15:06:36.856Z,14.87
2019-02-06T15:09:49.453Z,15.27
2019-02-06T15:13:03.098Z,14.97
2019-02-06T15:16:13.347Z,14.57
2019-02-06T15:19:14.672Z,15.90
2019-02-06T15:22:45.300Z,15.30
2019-02-06T15:26:21.454Z,15.50
2019-02-06T15:29:31.827Z,16.57
2019-02-06T15:32:32.108Z,17.23
2019-02-06T15:35:27.079Z,16.63
2019-02-06T15:38:40.015Z,16.00
2019-02-06T15:42:06.024Z,17.30
2019-02-06T15:45:04.809Z,16.27
2019-02-06T15:48:27.688Z,17.13
2019-02-06T15:51:45.654Z,16.33
2019-02-06T15:54:57.208Z,17.97
2019-02-06T15:57:57.995Z,16.43
2019-02-06T16:00:56.724Z,17.13
2019-02-06T16:04:30.718Z,19.03
2019-02-06T16:08:00.385Z,20.53
2019-02-06T16:11:01.949Z,19.13
2019-02-06T16:13:57.156Z,17.80
2019-02-06T16:17:14.416Z,18.23
2019-02-06T16:20:09.342Z,19.87
2019-02-06T16:23:36.751Z,19.80
2019-02-06T16:26:49.365Z,19.53
2019-02-06T16:30:16.743Z,20.13
2019-02-06T16:33:55.219Z,20.67
2019-02-06T16:37:20.924Z,19.27
2019-02-06T16:40:47.195Z,20.03
2019-02-06T16:44:07.960Z,19.17
2019-02-06T16:47:46.119Z,19.33
2019-02-06T16:50:31.907Z,19.43
2019-02-06T16:53:59.953Z,19.57
2019-02-06T16:57:10.232Z,18.73
2019-02-06T17:00:18.949Z,19.83
2019-02-06T17:03:10.358Z,18.90
2019-02-06T17:06:09.169Z,18.63
2019-02-06T17:09:23.892Z,19.07
2019-02-06T17:13:00.778Z,18.87
2019-02-06T17:16:20.264Z,19.10
2019-02-06T17:19:22.170Z,20.70
2019-02-06T17:22:56.014Z,20.33
2019-02-06T17:26:29.502Z,21.17
2019-02-06T17:29:28.537Z,20.97
2019-02-06T17:33:12.495Z,21.20
2019-02-06T17:36:51.289Z,21.70
2019-02-06T17:39:50.763Z,21.13
2019-02-06T17:43:16.199Z,21.43
2019-02-06T17:46:44.443Z,22.40
2019-02-06T17:49:58.518Z,22.97
2019-02-06T17:53:09.409Z,22.97
2019-02-06T17:55:43.029Z,21.77
2019-02-06T17:58:16.521Z,21.53
2019-02-06T18:01:17.895Z,22.03
2019-02-06T18:04:15.816Z,21.07
2019-02-06T18:06:51.570Z,21.00
2019-02-06T18:09:37.072Z,20.83
2019-02-06T18:12:26.981Z,20.63
2019-02-06T18:14:59.661Z,21.90
2019-02-06T18:17:33.825Z,21.57
2019-02-06T18:20:09.484Z,19.73
2019-02-06T18:22:45.735Z,20.93
2019-02-06T18:25:37.818Z,22.80
2019-02-06T18:28:19.587Z,21.43
2019-02-06T18:30:53.474Z,21.57
2019-02-06T18:33:28.090Z,20.87
2019-02-06T18:36:03.609Z,20.33
2019-02-06T18:38:56.745Z,23.33
2019-02-06T18:41:41.738Z,23.03
2019-02-06T18:44:14.337Z,22.97
2019-02-06T18:46:52.515Z,21.87
2019-02-06T18:49:27.267Z,23.10
2019-02-06T18:52:20.522Z,21.13
2019-02-06T18:54:55.379Z,22.83
2019-02-06T18:57:29.540Z,24.20
2019-02-06T19:00:32.899Z,22.57
2019-02-06T19:03:17.129Z,23.60
2019-02-06T19:05:51.368Z,24.00
2019-02-06T19:08:32.232Z,25.50
2019-02-06T19:11:07.878Z,24.67
2019-02-06T19:13:52.958Z,24.80
2019-02-06T19:16:28.210Z,25.33
2019-02-06T19:19:02.435Z,25.30
2019-02-06T19:21:37.134Z,25.60
2019-02-06T19:24:11.885Z,27.57
2019-02-06T19:26:45.703Z,26.73
2019-02-06T19:29:25.494Z,28.40
2019-02-06T19:31:59.447Z,28.07
2019-02-06T19:34:33.941Z,29.80
2019-02-06T19:37:09.754Z,29.40
2019-02-06T19:39:43.720Z,29.73
2019-02-06T19:42:17.926Z,29.43
2019-02-06T19:44:51.500Z,29.83
2019-02-06T19:47:28.780Z,29.07
2019-02-06T19:50:20.272Z,27.53
2019-02-06T19:53:10.401Z,29.20
2019-02-06T19:56:02.846Z,29.93
2019-02-06T19:58:41.013Z,28.47
2019-02-06T20:01:12.830Z,30.87
2019-02-06T20:04:05.791Z,31.13
2019-02-06T20:06:57.227Z,31.57
2019-02-06T20:09:36.406Z,31.40
2019-02-06T20:12:12.425Z,31.87
2019-02-06T20:51:46.099Z,33.47
2019-02-06T20:54:19.854Z,32.50
2019-02-06T20:57:13.729Z,32.10
2019-02-06T21:02:59.331Z,35.33
2019-02-06T21:05:33.308Z,36.50
2019-02-06T21:08:19.187Z,37.33
2019-02-06T21:11:17.301Z,36.70
2019-02-06T21:24:35.772Z,39.80
2019-02-06T21:38:28.352Z,40.07
2019-02-06T21:41:02.188Z,37.13
2019-02-06T21:43:43.925Z,36.37
2019-02-06T21:46:20.344Z,36.13
2019-02-06T21:49:05.556Z,36.93
2019-02-06T21:51:43.760Z,36.20
2019-02-06T21:54:22.669Z,36.80
2019-02-06T21:57:01.063Z,37.67
2019-02-06T21:59:35.054Z,38.03
2019-02-06T22:02:18.247Z,38.30
2019-02-06T22:05:04.370Z,36.77
2019-02-06T22:07:38.802Z,36.50
2019-02-06T22:21:42.669Z,35.70
2019-02-06T22:37:23.945Z,32.87
2019-02-06T22:39:58.133Z,31.13
2019-02-06T22:42:31.893Z,30.90
2019-02-06T22:45:06.828Z,29.87
2019-02-06T22:47:44.246Z,30.43
2019-02-06T22:50:19.142Z,31.10
2019-02-06T22:52:51.278Z,29.87
2019-02-06T22:55:24.929Z,30.30
2019-02-06T22:58:12.796Z,30.13
2019-02-06T23:01:19.529Z,29.37
2019-02-06T23:03:54.241Z,29.13
2019-02-06T23:06:28.553Z,30.10
2019-02-06T23:09:08.763Z,30.10
2019-02-06T23:11:42.937Z,29.30
2019-02-06T23:14:51.051Z,27.80
2019-02-06T23:17:25.650Z,27.20
2019-02-06T23:20:00.508Z,27.87
2019-02-06T23:22:36.698Z,27.40
2019-02-06T23:25:12.313Z,27.43
2019-02-06T23:28:04.265Z,27.97
2019-02-06T23:30:37.955Z,26.53
2019-02-06T23:33:14.591Z,26.07
2019-02-06T23:35:49.029Z,26.40
2019-02-06T23:38:23.486Z,25.43
2019-02-06T23:40:58.958Z,25.50
